createdAt,value
2022-10-13T00:01:11.806Z,99.11
2022-10-13T00:03:40.459Z,99.29
2022-10-13T00:06:10.705Z,99.39
2022-10-13T00:08:39.270Z,99.74
2022-10-13T00:11:13.121Z,99.84
2022-10-13T00:13:41.956Z,99.28
2022-10-13T00:16:11.121Z,99.16
2022-10-13T00:18:39.793Z,99.74
2022-10-13T00:21:09.873Z,99.18
2022-10-13T00:23:38.363Z,99.26
2022-10-13T00:26:08.714Z,99.12
2022-10-13T00:28:39.069Z,98.57
2022-10-13T00:31:17.060Z,98.45
2022-10-13T00:33:45.028Z,98.42
2022-10-13T00:36:14.183Z,97.99
2022-10-13T00:38:42.446Z,97.49
2022-10-13T00:41:10.852Z,97.15
2022-10-13T00:44:00.087Z,96.25
2022-10-13T00:46:31.009Z,96.14
2022-10-13T00:49:01.892Z,95.95
2022-10-13T00:51:34.235Z,95.66
2022-10-13T00:54:04.527Z,95.20
2022-10-13T00:56:32.952Z,94.86
2022-10-13T00:59:04.447Z,95.03
2022-10-13T01:01:33.023Z,95.24
2022-10-13T01:04:01.158Z,94.55
2022-10-13T01:06:29.163Z,94.45
2022-10-13T01:08:57.018Z,94.13
2022-10-13T01:11:42.176Z,93.87
2022-10-13T01:14:18.916Z,93.54
2022-10-13T01:16:56.371Z,93.62
2022-10-13T01:19:42.235Z,93.75
2022-10-13T01:22:22.264Z,93.93
2022-10-13T01:25:03.967Z,94.54
2022-10-13T01:28:00.284Z,93.72
2022-10-13T01:30:32.864Z,94.25
2022-10-13T01:33:18.222Z,93.90
2022-10-13T01:35:58.321Z,94.12
2022-10-13T01:38:34.675Z,94.94
2022-10-13T01:41:11.020Z,94.71
2022-10-13T01:43:44.659Z,95.16
2022-10-13T01:46:16.548Z,95.50
2022-10-13T01:48:46.047Z,96.81
2022-10-13T01:51:18.487Z,96.87
2022-10-13T01:53:48.513Z,96.90
2022-10-13T01:56:16.703Z,97.29
2022-10-13T01:58:46.284Z,98.52
2022-10-13T02:01:32.758Z,98.94
2022-10-13T02:04:11.634Z,99.94
2022-10-13T02:06:44.084Z,99.88
2022-10-13T02:09:18.593Z,100.00
2022-10-13T02:11:53.488Z,100.00
2022-10-13T02:14:26.359Z,100.00
2022-10-13T02:16:58.590Z,100.00
2022-10-13T02:19:28.128Z,100.00
2022-10-13T02:21:58.868Z,100.00
2022-10-13T02:24:26.744Z,100.00
2022-10-13T02:26:55.149Z,100.00
2022-10-13T02:29:23.283Z,100.00
2022-10-13T02:31:51.295Z,100.00
2022-10-13T02:34:20.500Z,100.00
2022-10-13T02:36:48.636Z,100.00
2022-10-13T02:39:17.729Z,99.79
2022-10-13T02:41:45.655Z,100.00
2022-10-13T02:44:13.683Z,99.88
2022-10-13T02:46:44.590Z,99.84
2022-10-13T02:49:12.496Z,99.62
2022-10-13T02:51:41.804Z,99.79
2022-10-13T02:54:09.823Z,99.22
2022-10-13T02:56:37.687Z,99.31
2022-10-13T02:59:05.703Z,99.04
2022-10-13T03:01:33.749Z,98.79
2022-10-13T03:04:01.688Z,98.96
2022-10-13T03:06:29.648Z,98.88
2022-10-13T03:08:59.290Z,98.42
2022-10-13T03:11:27.282Z,98.33
2022-10-13T03:13:55.262Z,98.17
2022-10-13T03:16:23.388Z,97.87
2022-10-13T03:18:51.229Z,97.64
2022-10-13T03:21:19.135Z,97.13
2022-10-13T03:23:47.039Z,97.48
2022-10-13T03:26:16.780Z,97.39
2022-10-13T03:28:44.803Z,97.15
2022-10-13T03:31:13.764Z,97.43
2022-10-13T03:33:41.820Z,96.41
2022-10-13T03:36:09.806Z,96.49
2022-10-13T03:38:39.028Z,96.29
2022-10-13T03:41:08.362Z,96.53
2022-10-13T03:43:37.626Z,95.59
2022-10-13T03:46:06.812Z,95.50
2022-10-13T03:48:36.096Z,95.31
2022-10-13T03:51:06.595Z,95.02
2022-10-13T03:53:34.567Z,94.66
2022-10-13T03:56:03.221Z,94.60
2022-10-13T03:58:35.240Z,94.20
2022-10-13T04:01:06.109Z,94.79
2022-10-13T04:03:35.007Z,94.46
2022-10-13T04:06:03.532Z,94.70
2022-10-13T04:08:31.782Z,95.30
2022-10-13T04:11:00.639Z,95.11
2022-10-13T04:13:28.561Z,94.92
2022-10-13T04:15:56.898Z,94.54
2022-10-13T04:18:26.157Z,94.47
2022-10-13T04:20:54.034Z,95.14
2022-10-13T04:23:21.915Z,95.15
2022-10-13T04:25:49.939Z,95.02
2022-10-13T04:28:18.196Z,94.51
2022-10-13T04:30:49.452Z,94.55
2022-10-13T04:33:17.825Z,94.20
2022-10-13T04:35:47.072Z,94.50
2022-10-13T04:38:15.007Z,94.45
2022-10-13T04:40:42.868Z,94.82
2022-10-13T04:43:10.756Z,95.03
2022-10-13T04:45:38.774Z,94.80
2022-10-13T04:48:06.907Z,94.80
2022-10-13T04:50:34.814Z,94.80
2022-10-13T04:53:04.611Z,94.62
2022-10-13T04:55:32.526Z,94.62
2022-10-13T04:58:00.404Z,95.07
2022-10-13T05:00:28.331Z,95.24
2022-10-13T05:02:56.267Z,95.44
2022-10-13T05:05:24.100Z,95.43
2022-10-13T05:07:52.106Z,95.35
2022-10-13T05:10:21.390Z,95.23
2022-10-13T05:12:49.390Z,94.95
2022-10-13T05:15:17.532Z,94.55
2022-10-13T05:17:45.533Z,95.35
2022-10-13T05:20:13.690Z,95.64
2022-10-13T05:22:41.598Z,95.29
2022-10-13T05:25:09.665Z,95.56
2022-10-13T05:27:38.915Z,95.74
2022-10-13T05:30:11.499Z,95.78
2022-10-13T05:32:39.425Z,96.08
2022-10-13T05:35:08.016Z,96.46
2022-10-13T05:37:35.902Z,96.29
2022-10-13T05:40:03.904Z,96.56
2022-10-13T05:42:31.901Z,96.10
2022-10-13T05:45:01.141Z,96.15
2022-10-13T05:47:29.107Z,96.28
2022-10-13T05:49:57.244Z,96.54
2022-10-13T05:52:27.044Z,96.95
2022-10-13T05:54:59.260Z,96.49
2022-10-13T05:57:32.298Z,96.97
2022-10-13T06:00:05.253Z,97.42
2022-10-13T06:02:45.392Z,97.48
2022-10-13T06:05:17.475Z,97.35
2022-10-13T06:07:47.094Z,97.45
2022-10-13T06:10:15.425Z,97.15
2022-10-13T06:12:43.423Z,97.54
2022-10-13T06:15:12.999Z,96.86
2022-10-13T06:17:41.025Z,97.38
2022-10-13T06:20:10.653Z,96.80
2022-10-13T06:22:38.934Z,96.41
2022-10-13T06:25:08.381Z,96.34
2022-10-13T06:27:36.311Z,96.42
2022-10-13T06:30:04.411Z,96.90
2022-10-13T06:32:33.649Z,96.73
2022-10-13T06:35:01.754Z,96.91
2022-10-13T06:37:29.775Z,96.54
2022-10-13T06:39:57.674Z,96.97
2022-10-13T06:42:25.756Z,96.85
2022-10-13T06:45:10.349Z,96.29
2022-10-13T06:47:42.618Z,96.53
2022-10-13T06:50:11.002Z,95.94
2022-10-13T06:52:39.252Z,96.79
2022-10-13T06:55:07.523Z,96.35
2022-10-13T06:57:35.878Z,96.19
2022-10-13T07:00:08.185Z,96.10
2022-10-13T07:02:36.446Z,95.85
2022-10-13T07:05:06.304Z,95.94
2022-10-13T07:07:34.256Z,95.56
2022-10-13T07:10:02.178Z,95.26
2022-10-13T07:12:30.087Z,95.03
2022-10-13T07:14:57.969Z,94.90
2022-10-13T07:17:25.936Z,94.42
2022-10-13T07:19:57.788Z,94.65
2022-10-13T07:22:27.826Z,94.32
2022-10-13T07:24:55.863Z,94.26
2022-10-13T07:27:25.373Z,93.88
2022-10-13T07:29:53.438Z,93.42
2022-10-13T07:32:21.430Z,93.72
2022-10-13T07:34:52.490Z,93.32
2022-10-13T07:37:20.582Z,92.86
2022-10-13T07:39:50.188Z,92.83
2022-10-13T07:42:18.198Z,92.76
2022-10-13T07:44:46.059Z,93.43
2022-10-13T07:47:14.016Z,92.54
2022-10-13T07:49:43.233Z,93.07
2022-10-13T07:52:11.161Z,92.37
2022-10-13T07:54:39.023Z,92.58
2022-10-13T07:57:09.084Z,92.48
2022-10-13T07:59:37.032Z,91.58
2022-10-13T08:02:05.223Z,92.02
2022-10-13T08:04:33.764Z,91.43
2022-10-13T08:07:01.883Z,91.50
2022-10-13T08:09:29.803Z,91.36
2022-10-13T08:12:00.932Z,90.31
2022-10-13T08:14:31.569Z,90.69
2022-10-13T08:16:59.663Z,90.54
2022-10-13T08:19:28.429Z,89.71
2022-10-13T08:21:59.193Z,89.45
2022-10-13T08:24:28.768Z,88.69
2022-10-13T08:26:56.675Z,89.17
2022-10-13T08:29:24.816Z,88.88
2022-10-13T08:31:55.405Z,88.20
2022-10-13T08:34:24.217Z,88.16
2022-10-13T08:36:53.542Z,88.57
2022-10-13T08:39:22.717Z,88.17
2022-10-13T08:41:51.161Z,88.36
2022-10-13T08:45:02.636Z,87.41
2022-10-13T08:47:21.703Z,86.94
2022-10-13T08:49:49.876Z,86.48
2022-10-13T08:52:20.970Z,85.59
2022-10-13T08:54:50.522Z,85.60
2022-10-13T08:57:19.493Z,85.65
2022-10-13T08:59:48.111Z,85.60
2022-10-13T09:02:24.539Z,84.97
2022-10-13T09:04:54.577Z,84.60
2022-10-13T09:07:25.969Z,84.74
2022-10-13T09:09:55.644Z,84.85
2022-10-13T09:12:26.262Z,84.74
2022-10-13T09:15:05.139Z,85.32
2022-10-13T09:17:35.487Z,85.60
2022-10-13T09:20:07.192Z,85.41
2022-10-13T09:22:36.664Z,84.39
2022-10-13T09:25:18.068Z,83.63
2022-10-13T09:27:48.804Z,84.27
2022-10-13T09:30:28.173Z,83.83
2022-10-13T09:33:23.920Z,83.63
2022-10-13T09:36:12.216Z,84.35
2022-10-13T09:38:41.661Z,83.05
2022-10-13T09:41:17.134Z,84.15
2022-10-13T09:43:59.941Z,83.27
2022-10-13T09:46:32.481Z,83.31
2022-10-13T09:49:05.196Z,82.91
2022-10-13T09:51:39.560Z,83.33
2022-10-13T09:54:28.268Z,83.04
2022-10-13T09:57:00.669Z,82.93
2022-10-13T09:59:34.301Z,83.79
2022-10-13T10:02:05.000Z,83.79
2022-10-13T10:04:37.874Z,83.65
2022-10-13T10:07:12.950Z,82.80
2022-10-13T10:09:46.008Z,81.88
2022-10-13T10:12:20.292Z,82.39
2022-10-13T10:14:50.511Z,82.30
2022-10-13T10:17:24.612Z,83.22
2022-10-13T10:20:16.813Z,83.33
2022-10-13T10:22:53.317Z,82.97
2022-10-13T10:25:33.091Z,82.98
2022-10-13T10:28:24.919Z,83.47
2022-10-13T10:30:58.691Z,82.66
2022-10-13T10:33:36.561Z,82.45
2022-10-13T10:36:16.761Z,82.64
2022-10-13T10:38:49.301Z,82.00
2022-10-13T10:41:31.360Z,81.61
2022-10-13T10:44:03.764Z,81.43
2022-10-13T10:46:35.636Z,82.12
2022-10-13T10:49:12.958Z,80.54
2022-10-13T10:51:43.214Z,80.24
2022-10-13T10:54:24.404Z,80.79
2022-10-13T10:56:56.880Z,80.79
2022-10-13T10:59:40.834Z,80.42
2022-10-13T11:02:26.073Z,79.86
2022-10-13T11:04:55.344Z,80.29
2022-10-13T11:08:01.674Z,80.93
2022-10-13T11:10:30.596Z,78.81
2022-10-13T11:13:18.517Z,79.76
2022-10-13T11:15:47.528Z,79.43
2022-10-13T11:19:07.049Z,79.01
2022-10-13T11:22:24.206Z,79.03
2022-10-13T11:25:02.465Z,78.75
2022-10-13T11:27:44.212Z,77.94
2022-10-13T11:30:47.197Z,78.15
2022-10-13T11:33:35.175Z,78.65
2022-10-13T11:36:40.413Z,78.39
2022-10-13T11:39:55.394Z,76.88
2022-10-13T11:42:49.005Z,76.42
2022-10-13T11:45:30.785Z,76.64
2022-10-13T11:48:32.985Z,75.78
2022-10-13T11:51:15.517Z,76.28
2022-10-13T11:53:54.390Z,75.95
2022-10-13T11:56:24.596Z,75.05
2022-10-13T11:58:54.094Z,75.35
2022-10-13T12:01:22.018Z,76.39
2022-10-13T12:03:49.947Z,76.78
2022-10-13T12:06:33.660Z,76.40
2022-10-13T12:09:08.538Z,77.30
2022-10-13T12:11:38.880Z,76.53
2022-10-13T12:14:19.551Z,75.60
2022-10-13T12:19:29.900Z,75.99
2022-10-13T12:21:59.544Z,75.19
2022-10-13T12:24:30.424Z,74.31
2022-10-13T12:26:59.335Z,75.34
2022-10-13T12:29:36.334Z,75.12
2022-10-13T12:32:18.941Z,75.18
2022-10-13T12:34:46.847Z,76.28
2022-10-13T12:37:23.047Z,74.50
2022-10-13T12:39:51.762Z,75.36
2022-10-13T12:42:30.341Z,73.31
2022-10-13T12:45:01.524Z,73.61
2022-10-13T12:47:48.806Z,72.54
2022-10-13T12:50:38.512Z,74.02
2022-10-13T12:53:19.398Z,74.31
2022-10-13T12:55:55.256Z,74.50
2022-10-13T12:58:26.987Z,73.88
2022-10-13T13:01:27.042Z,74.50
2022-10-13T13:03:58.134Z,74.41
2022-10-13T13:06:35.264Z,74.65
2022-10-13T13:09:22.662Z,73.84
2022-10-13T13:12:03.952Z,73.64
2022-10-13T13:14:37.854Z,73.89
2022-10-13T13:17:12.241Z,73.77
2022-10-13T13:19:41.442Z,74.15
2022-10-13T13:22:11.563Z,74.78
2022-10-13T13:24:40.606Z,74.40
2022-10-13T13:27:20.083Z,73.47
2022-10-13T13:29:48.483Z,74.11
2022-10-13T13:32:20.536Z,74.23
2022-10-13T13:34:48.873Z,74.71
2022-10-13T13:37:25.080Z,75.05
2022-10-13T13:39:53.204Z,74.95
2022-10-13T13:42:21.174Z,75.04
2022-10-13T13:44:49.936Z,75.55
2022-10-13T13:47:21.794Z,75.49
2022-10-13T13:49:51.144Z,75.82
2022-10-13T13:52:19.458Z,74.91
2022-10-13T13:54:47.440Z,74.86
2022-10-13T13:57:16.345Z,75.97
2022-10-13T13:59:44.663Z,75.52
2022-10-13T14:02:15.741Z,74.98
2022-10-13T14:04:45.613Z,74.19
2022-10-13T14:07:14.274Z,75.22
2022-10-13T14:09:42.123Z,73.89
2022-10-13T14:12:11.527Z,74.39
2022-10-13T14:14:39.534Z,75.31
2022-10-13T14:17:10.556Z,74.81
2022-10-13T14:19:38.439Z,74.50
2022-10-13T14:22:09.592Z,73.95
2022-10-13T14:24:37.564Z,73.99
2022-10-13T14:27:05.712Z,74.02
2022-10-13T14:29:33.515Z,74.41
2022-10-13T14:32:01.519Z,74.57
2022-10-13T14:34:29.372Z,74.49
2022-10-13T14:36:57.286Z,75.14
2022-10-13T14:39:26.843Z,76.80
2022-10-13T14:41:54.744Z,78.31
2022-10-13T14:44:22.592Z,79.28
2022-10-13T14:46:50.491Z,80.14
2022-10-13T14:49:18.296Z,80.42
2022-10-13T14:51:49.100Z,80.41
2022-10-13T14:54:17.296Z,80.19
2022-10-13T14:56:46.561Z,80.78
2022-10-13T14:59:14.507Z,81.49
2022-10-13T15:01:43.942Z,81.87
2022-10-13T15:04:12.162Z,81.70
2022-10-13T15:06:40.248Z,81.95
2022-10-13T15:11:41.941Z,82.73
2022-10-13T15:14:11.398Z,81.87
2022-10-13T15:16:39.308Z,82.00
2022-10-13T15:19:08.071Z,82.09
2022-10-13T15:21:35.961Z,82.33
2022-10-13T15:24:04.471Z,82.67
2022-10-13T15:26:32.599Z,83.05
2022-10-13T15:29:00.686Z,83.04
2022-10-13T15:31:30.958Z,82.89
2022-10-13T15:33:58.857Z,83.48
2022-10-13T15:36:26.745Z,83.05
2022-10-13T15:38:54.590Z,83.28
2022-10-13T15:41:23.665Z,83.92
2022-10-13T15:43:52.323Z,83.91
2022-10-13T15:46:24.256Z,84.63
2022-10-13T15:48:55.495Z,84.35
2022-10-13T15:51:26.890Z,84.89
2022-10-13T15:53:55.180Z,85.38
2022-10-13T15:56:23.346Z,85.93
2022-10-13T15:58:51.266Z,85.78
2022-10-13T16:01:19.249Z,86.86
2022-10-13T16:06:50.678Z,88.30
2022-10-13T16:09:18.659Z,89.35
2022-10-13T16:11:46.561Z,89.35
2022-10-13T16:14:14.550Z,89.29
2022-10-13T16:16:42.461Z,88.39
2022-10-13T16:19:10.409Z,90.17
2022-10-13T16:21:38.302Z,90.07
2022-10-13T16:24:09.073Z,90.47
2022-10-13T16:26:37.010Z,91.17
2022-10-13T16:29:04.984Z,90.24
2022-10-13T16:31:32.877Z,91.77
2022-10-13T16:34:00.747Z,92.34
2022-10-13T16:36:28.723Z,91.92
2022-10-13T16:38:56.946Z,92.21
2022-10-13T16:41:26.234Z,93.59
2022-10-13T16:43:54.152Z,93.22
2022-10-13T16:46:22.229Z,91.97
2022-10-13T16:48:50.287Z,93.83
2022-10-13T16:51:20.284Z,93.84
2022-10-13T16:53:49.534Z,94.70
2022-10-13T16:56:22.030Z,94.51
2022-10-13T16:58:53.678Z,94.09
2022-10-13T17:01:22.695Z,94.77
2022-10-13T17:03:52.663Z,95.29
2022-10-13T17:06:22.657Z,96.02
2022-10-13T17:08:55.958Z,95.26
2022-10-13T17:11:26.497Z,95.89
2022-10-13T17:13:57.466Z,95.81
2022-10-13T17:16:26.975Z,95.89
2022-10-13T17:18:55.065Z,96.33
2022-10-13T17:21:25.290Z,96.41
2022-10-13T17:23:55.344Z,96.57
2022-10-13T17:26:23.569Z,96.12
2022-10-13T17:28:51.519Z,95.72
2022-10-13T17:31:22.917Z,96.67
2022-10-13T17:33:51.600Z,96.90
2022-10-13T17:36:21.868Z,97.26
2022-10-13T17:38:50.759Z,97.60
2022-10-13T17:41:19.844Z,97.60
2022-10-13T17:43:51.446Z,96.75
2022-10-13T17:46:39.283Z,97.04
2022-10-13T17:49:10.334Z,97.96
2022-10-13T17:51:38.802Z,97.92
2022-10-13T17:54:11.585Z,97.82
2022-10-13T17:56:40.989Z,97.48
2022-10-13T17:59:09.895Z,97.17
2022-10-13T18:01:41.841Z,97.28
2022-10-13T18:04:12.647Z,97.14
2022-10-13T18:06:43.909Z,98.25
2022-10-13T18:09:14.380Z,97.75
2022-10-13T18:11:49.426Z,98.26
2022-10-13T18:14:18.440Z,98.09
2022-10-13T18:16:48.821Z,98.53
2022-10-13T18:19:16.789Z,98.72
2022-10-13T18:21:44.773Z,99.14
2022-10-13T18:24:12.817Z,99.09
2022-10-13T18:26:40.860Z,99.23
2022-10-13T18:29:11.936Z,99.59
2022-10-13T18:31:41.227Z,99.51
2022-10-13T18:34:15.192Z,99.11
2022-10-13T18:36:46.544Z,99.67
2022-10-13T18:39:16.725Z,99.46
2022-10-13T18:41:49.114Z,99.65
2022-10-13T18:44:18.617Z,100.00
2022-10-13T18:46:47.079Z,99.83
2022-10-13T18:49:18.471Z,99.99
2022-10-13T18:51:46.668Z,100.00
2022-10-13T18:54:14.600Z,100.00
2022-10-13T18:56:42.819Z,99.93
2022-10-13T18:59:12.311Z,100.00
2022-10-13T19:01:41.157Z,100.00
2022-10-13T19:04:12.611Z,100.00
2022-10-13T19:06:42.784Z,99.81
2022-10-13T19:09:13.418Z,99.84
2022-10-13T19:11:41.770Z,99.93
2022-10-13T19:14:13.956Z,99.74
2022-10-13T19:16:43.997Z,99.19
2022-10-13T19:19:16.088Z,98.45
2022-10-13T19:21:45.370Z,97.55
2022-10-13T19:24:13.527Z,97.07
2022-10-13T19:26:42.168Z,97.00
2022-10-13T19:29:12.312Z,96.69
2022-10-13T19:31:42.604Z,96.78
2022-10-13T19:34:12.120Z,97.01
2022-10-13T19:36:42.319Z,96.95
2022-10-13T19:39:16.035Z,97.71
2022-10-13T19:41:45.223Z,97.73
2022-10-13T19:44:13.205Z,98.47
2022-10-13T19:46:42.270Z,98.51
2022-10-13T19:49:11.306Z,98.90
2022-10-13T19:51:45.792Z,98.27
2022-10-13T19:54:15.068Z,97.96
2022-10-13T19:56:47.220Z,96.99
2022-10-13T19:59:16.014Z,97.09
2022-10-13T20:01:44.283Z,96.60
2022-10-13T20:04:17.914Z,96.81
2022-10-13T20:06:46.268Z,96.76
2022-10-13T20:09:15.931Z,97.16
2022-10-13T20:11:45.855Z,97.14
2022-10-13T20:14:14.088Z,97.34
2022-10-13T20:16:42.426Z,96.69
2022-10-13T20:19:13.324Z,97.27
2022-10-13T20:21:42.731Z,97.33
2022-10-13T20:24:12.326Z,96.61
2022-10-13T20:26:41.789Z,96.34
2022-10-13T20:29:10.001Z,96.13
2022-10-13T20:31:38.006Z,95.56
2022-10-13T20:34:05.955Z,96.37
2022-10-13T20:36:38.554Z,96.19
2022-10-13T20:39:07.636Z,97.09
2022-10-13T20:41:35.549Z,96.94
2022-10-13T20:44:04.859Z,96.67
2022-10-13T20:46:34.364Z,96.36
2022-10-13T20:49:10.880Z,96.35
2022-10-13T20:51:40.167Z,95.65
2022-10-13T20:54:08.141Z,96.15
2022-10-13T20:56:36.157Z,95.97
2022-10-13T20:59:07.690Z,96.23
2022-10-13T21:01:35.957Z,95.85
2022-10-13T21:04:04.164Z,95.56
2022-10-13T21:06:32.871Z,95.93
2022-10-13T21:09:01.417Z,95.75
2022-10-13T21:11:29.396Z,96.12
2022-10-13T21:13:57.406Z,96.52
2022-10-13T21:16:29.127Z,95.63
2022-10-13T21:18:58.759Z,95.72
2022-10-13T21:21:28.188Z,96.52
2022-10-13T21:23:57.793Z,96.96
2022-10-13T21:26:27.223Z,96.74
2022-10-13T21:28:55.505Z,96.88
2022-10-13T21:31:24.642Z,97.12
2022-10-13T21:33:54.513Z,97.36
2022-10-13T21:36:25.121Z,97.08
2022-10-13T21:38:54.891Z,96.58
2022-10-13T21:41:23.465Z,97.18
2022-10-13T21:43:52.095Z,96.71
2022-10-13T21:46:22.845Z,96.94
2022-10-13T21:48:56.534Z,96.58
2022-10-13T21:51:26.652Z,97.78
2022-10-13T21:53:56.974Z,97.34
2022-10-13T21:56:26.675Z,97.62
2022-10-13T21:58:55.973Z,97.63
2022-10-13T22:01:24.754Z,97.39
2022-10-13T22:03:56.584Z,97.11
2022-10-13T22:06:27.723Z,96.78
2022-10-13T22:08:58.382Z,97.11
2022-10-13T22:11:29.568Z,96.68
2022-10-13T22:13:58.223Z,97.58
2022-10-13T22:16:28.922Z,97.51
2022-10-13T22:18:59.358Z,97.49
2022-10-13T22:21:30.800Z,97.43
2022-10-13T22:23:59.897Z,97.57
2022-10-13T22:26:28.595Z,96.93
2022-10-13T22:28:57.745Z,97.69
2022-10-13T22:31:26.225Z,96.97
2022-10-13T22:33:54.984Z,97.14
2022-10-13T22:36:26.582Z,96.54
2022-10-13T22:38:56.837Z,97.18
2022-10-13T22:41:25.245Z,97.30
2022-10-13T22:43:54.743Z,95.67
2022-10-13T22:46:24.812Z,95.42
2022-10-13T22:48:53.151Z,94.24
2022-10-13T22:51:22.726Z,94.28
2022-10-13T22:53:52.814Z,94.15
2022-10-13T22:56:23.001Z,94.05
2022-10-13T22:58:51.365Z,94.43
2022-10-13T23:01:19.842Z,94.37
2022-10-13T23:03:49.382Z,94.97
2022-10-13T23:06:20.351Z,94.36
2022-10-13T23:08:48.576Z,94.43
2022-10-13T23:11:17.897Z,94.25
2022-10-13T23:13:46.212Z,92.99
2022-10-13T23:16:16.207Z,92.93
2022-10-13T23:18:44.967Z,93.83
2022-10-13T23:21:27.127Z,93.54
2022-10-13T23:23:56.597Z,92.79
2022-10-13T23:26:26.460Z,93.38
2022-10-13T23:28:54.669Z,93.54
2022-10-13T23:31:22.765Z,93.83
2022-10-13T23:33:50.807Z,93.63
2022-10-13T23:36:20.929Z,94.18
2022-10-13T23:38:49.577Z,94.22
2022-10-13T23:41:17.754Z,93.99
2022-10-13T23:43:47.011Z,94.51
2022-10-13T23:46:14.963Z,94.63
2022-10-13T23:48:42.927Z,94.77
2022-10-13T23:51:13.211Z,94.48
2022-10-13T23:53:41.687Z,94.89
2022-10-13T23:56:11.213Z,94.99
2022-10-13T23:58:40.189Z,95.39
